createdAt,value
2024-01-15T00:01:53.560Z,19.52
2024-01-15T00:04:55.584Z,17.25
2024-01-15T00:07:57.237Z,17.08
2024-01-15T00:10:59.131Z,15.15
2024-01-15T00:14:00.933Z,15.02
2024-01-15T00:17:02.878Z,13.82
2024-01-15T00:20:05.172Z,16.48
2024-01-15T00:23:07.004Z,15.35
2024-01-15T00:26:10.637Z,15.85
2024-01-15T00:29:13.538Z,17.92
2024-01-15T00:32:15.509Z,16.42
2024-01-15T00:35:17.369Z,18.15
2024-01-15T00:38:19.172Z,15.65
2024-01-15T00:41:21.052Z,12.95
2024-01-15T00:44:22.923Z,13.60
2024-01-15T00:47:24.772Z,12.52
2024-01-15T00:50:26.508Z,11.80
2024-01-15T00:53:28.349Z,11.98
2024-01-15T00:56:29.999Z,12.80
2024-01-15T00:59:31.837Z,13.07
2024-01-15T01:02:33.661Z,11.82
2024-01-15T01:05:36.057Z,12.18
2024-01-15T01:08:37.820Z,11.45
2024-01-15T01:11:39.569Z,12.43
2024-01-15T01:14:41.442Z,11.77
2024-01-15T01:17:43.276Z,13.20
2024-01-15T01:20:45.316Z,11.18
2024-01-15T01:23:47.252Z,13.10
2024-01-15T01:26:49.088Z,10.18
2024-01-15T01:29:50.862Z,10.45
2024-01-15T01:32:52.632Z,11.27
2024-01-15T01:35:54.491Z,11.43
2024-01-15T01:38:56.381Z,12.18
2024-01-15T01:41:58.054Z,11.68
2024-01-15T01:44:59.845Z,10.85
2024-01-15T01:48:02.890Z,11.25
2024-01-15T01:51:05.959Z,11.25
2024-01-15T01:54:10.572Z,8.68
2024-01-15T01:57:13.866Z,9.65
2024-01-15T02:00:16.076Z,9.95
2024-01-15T02:03:17.995Z,11.35
2024-01-15T02:06:20.375Z,10.57
2024-01-15T02:09:22.527Z,12.50
2024-01-15T02:12:24.344Z,8.95
2024-01-15T02:15:26.177Z,11.40
2024-01-15T02:18:28.136Z,10.13
2024-01-15T02:21:30.251Z,13.00
2024-01-15T02:24:32.445Z,13.10
2024-01-15T02:27:34.300Z,11.95
2024-01-15T02:30:40.747Z,13.02
2024-01-15T02:33:43.813Z,12.93
2024-01-15T02:36:45.828Z,13.70
2024-01-15T02:39:47.713Z,12.68
2024-01-15T02:42:49.709Z,13.15
2024-01-15T02:45:51.531Z,14.25
2024-01-15T02:48:53.496Z,14.13
2024-01-15T02:51:55.343Z,16.45
2024-01-15T02:54:57.198Z,15.88
2024-01-15T02:58:00.608Z,13.02
2024-01-15T03:01:02.697Z,13.40
2024-01-15T03:04:04.991Z,17.30
2024-01-15T03:07:07.076Z,13.82
2024-01-15T03:10:09.407Z,17.15
2024-01-15T03:13:11.232Z,15.18
2024-01-15T03:16:13.052Z,16.65
2024-01-15T03:19:14.934Z,14.68
2024-01-15T03:22:17.558Z,15.75
2024-01-15T03:25:19.410Z,13.85
2024-01-15T03:28:21.198Z,16.02
2024-01-15T03:31:23.012Z,16.10
2024-01-15T03:34:24.815Z,16.60
2024-01-15T03:37:26.628Z,16.65
2024-01-15T03:40:28.532Z,17.23
2024-01-15T03:43:30.430Z,15.88
2024-01-15T03:46:32.390Z,16.35
2024-01-15T03:49:34.252Z,17.83
2024-01-15T03:52:36.116Z,15.18
2024-01-15T03:55:37.903Z,19.02
2024-01-15T03:58:39.957Z,17.77
2024-01-15T04:01:41.945Z,17.20
2024-01-15T04:04:45.374Z,16.48
2024-01-15T04:07:47.390Z,15.90
2024-01-15T04:10:49.320Z,15.32
2024-01-15T04:13:51.286Z,15.20
2024-01-15T04:16:53.171Z,10.88
2024-01-15T04:19:54.969Z,11.50
2024-01-15T04:22:56.932Z,12.32
2024-01-15T04:25:58.593Z,15.85
2024-01-15T04:29:00.778Z,10.32
2024-01-15T04:32:02.713Z,13.43
2024-01-15T04:35:04.894Z,12.07
2024-01-15T04:38:06.617Z,12.13
2024-01-15T04:41:14.436Z,11.57
2024-01-15T04:44:16.470Z,11.10
2024-01-15T04:47:18.316Z,10.32
2024-01-15T04:50:20.029Z,9.70
2024-01-15T04:53:21.807Z,12.75
2024-01-15T04:56:23.676Z,13.63
2024-01-15T04:59:25.540Z,12.07
2024-01-15T05:02:27.308Z,12.73
2024-01-15T05:05:29.042Z,10.40
2024-01-15T05:08:30.950Z,10.23
2024-01-15T05:11:35.808Z,9.65
2024-01-15T05:14:37.765Z,9.85
2024-01-15T05:17:39.892Z,11.38
2024-01-15T05:20:41.785Z,11.23
2024-01-15T05:23:43.522Z,12.02
2024-01-15T05:26:45.198Z,11.68
2024-01-15T05:29:47.011Z,12.40
2024-01-15T05:32:48.968Z,13.38
2024-01-15T05:35:51.571Z,10.13
2024-01-15T05:38:53.699Z,11.82
2024-01-15T05:41:55.433Z,12.20
2024-01-15T05:44:57.385Z,11.48
2024-01-15T05:47:59.892Z,11.00
2024-01-15T05:51:01.642Z,11.98
2024-01-15T05:54:03.446Z,9.95
2024-01-15T05:57:05.462Z,10.15
2024-01-15T06:00:07.970Z,10.20
2024-01-15T06:03:09.843Z,10.43
2024-01-15T06:06:11.691Z,10.32
2024-01-15T06:09:13.671Z,10.32
2024-01-15T06:12:15.527Z,10.30
2024-01-15T06:15:17.302Z,9.38
2024-01-15T06:18:19.138Z,9.07
2024-01-15T06:21:21.036Z,9.80
2024-01-15T06:24:22.817Z,8.15
2024-01-15T06:27:24.674Z,8.55
2024-01-15T06:30:26.571Z,10.18
2024-01-15T06:33:28.464Z,10.40
2024-01-15T06:36:30.441Z,10.20
2024-01-15T06:39:32.669Z,9.02
2024-01-15T06:42:34.531Z,8.13
2024-01-15T06:45:36.290Z,7.93
2024-01-15T06:48:38.358Z,8.15
2024-01-15T06:51:40.476Z,8.18
2024-01-15T06:54:42.490Z,7.13
2024-01-15T06:57:44.439Z,7.32
2024-01-15T07:00:46.529Z,9.07
2024-01-15T07:03:48.443Z,7.03
2024-01-15T07:06:50.351Z,7.40
2024-01-15T07:09:53.405Z,6.75
2024-01-15T07:12:55.418Z,7.50
2024-01-15T07:15:57.592Z,6.13
2024-01-15T07:18:59.439Z,6.05
2024-01-15T07:22:01.515Z,7.43
2024-01-15T07:25:03.546Z,7.32
2024-01-15T07:28:05.704Z,5.35
2024-01-15T07:31:07.760Z,6.43
2024-01-15T07:34:10.010Z,7.95
2024-01-15T07:37:12.870Z,6.97
2024-01-15T07:40:14.772Z,8.82
2024-01-15T07:43:16.868Z,6.93
2024-01-15T07:46:18.599Z,7.32
2024-01-15T07:49:20.418Z,8.05
2024-01-15T07:52:22.395Z,7.60
2024-01-15T07:55:24.961Z,6.10
2024-01-15T07:58:26.893Z,5.53
2024-01-15T08:01:28.857Z,8.32
2024-01-15T08:04:30.877Z,5.95
2024-01-15T08:07:32.707Z,6.07
2024-01-15T08:10:34.302Z,7.22
2024-01-15T08:13:36.024Z,7.78
2024-01-15T08:16:38.865Z,8.20
2024-01-15T08:19:42.543Z,8.30
2024-01-15T08:22:44.352Z,7.45
2024-01-15T08:25:46.104Z,7.35
2024-01-15T08:28:47.833Z,7.22
2024-01-15T08:31:49.818Z,6.78
2024-01-15T08:34:53.479Z,5.50
2024-01-15T08:37:55.340Z,6.95
2024-01-15T08:40:59.991Z,6.60
2024-01-15T08:44:01.729Z,7.78
2024-01-15T08:47:04.164Z,8.10
2024-01-15T08:50:06.765Z,7.63
2024-01-15T08:53:08.450Z,8.35
2024-01-15T08:56:10.227Z,10.30
2024-01-15T08:59:12.453Z,10.98
2024-01-15T09:02:14.211Z,9.95
2024-01-15T09:05:16.351Z,10.38
2024-01-15T09:08:18.208Z,9.25
2024-01-15T09:11:19.930Z,12.00
2024-01-15T09:14:32.989Z,11.20
2024-01-15T09:17:38.596Z,10.85
2024-01-15T09:20:40.475Z,9.57
2024-01-15T09:23:42.251Z,8.32
2024-01-15T09:26:43.991Z,10.75
2024-01-15T09:29:47.410Z,14.02
2024-01-15T09:32:49.817Z,12.98
2024-01-15T09:35:51.603Z,14.40
2024-01-15T09:38:53.319Z,18.50
2024-01-15T09:41:55.694Z,18.02
2024-01-15T09:44:57.414Z,14.30
2024-01-15T09:47:59.198Z,16.52
2024-01-15T09:51:02.747Z,15.82
2024-01-15T09:54:05.261Z,16.77
2024-01-15T09:57:07.423Z,14.93
2024-01-15T10:00:12.469Z,13.43
2024-01-15T10:03:14.877Z,10.73
2024-01-15T10:06:22.291Z,13.48
2024-01-15T10:09:24.918Z,13.23
2024-01-15T10:12:28.524Z,13.07
2024-01-15T10:15:30.561Z,11.85
2024-01-15T10:18:32.439Z,13.55
2024-01-15T10:21:37.441Z,13.32
2024-01-15T10:24:39.907Z,13.10
2024-01-15T10:27:45.477Z,12.52
2024-01-15T10:30:47.341Z,12.13
2024-01-15T10:33:50.241Z,14.07
2024-01-15T10:36:56.840Z,10.90
2024-01-15T10:39:58.993Z,15.52
2024-01-15T10:43:00.881Z,16.02
2024-01-15T10:46:03.802Z,14.43
2024-01-15T10:49:06.104Z,10.73
2024-01-15T10:52:07.922Z,10.18
2024-01-15T10:55:14.605Z,9.73
2024-01-15T10:58:19.812Z,9.50
2024-01-15T11:01:22.150Z,11.45
2024-01-15T11:04:25.305Z,9.88
2024-01-15T11:07:29.345Z,11.15
2024-01-15T11:10:47.553Z,9.80
2024-01-15T11:13:52.729Z,12.52
2024-01-15T11:17:02.308Z,9.65
2024-01-15T11:20:07.967Z,10.60
2024-01-15T11:23:10.902Z,10.70
2024-01-15T11:26:32.094Z,10.05
2024-01-15T11:29:38.439Z,9.57
2024-01-15T11:32:44.288Z,10.02
2024-01-15T11:35:50.575Z,8.95
2024-01-15T11:38:52.244Z,9.00
2024-01-15T11:42:02.442Z,10.50
2024-01-15T11:45:05.667Z,8.57
2024-01-15T11:48:13.271Z,8.95
2024-01-15T11:51:19.498Z,7.05
2024-01-15T11:54:25.149Z,9.63
2024-01-15T11:57:50.725Z,9.55
2024-01-15T12:00:54.149Z,9.95
2024-01-15T12:03:56.310Z,9.40
2024-01-15T12:06:58.286Z,8.35
2024-01-15T12:10:00.193Z,9.15
2024-01-15T12:13:07.741Z,9.60
2024-01-15T12:16:09.671Z,9.75
2024-01-15T12:19:11.647Z,8.15
2024-01-15T12:22:13.382Z,11.00
2024-01-15T12:25:15.206Z,10.68
2024-01-15T12:28:17.144Z,8.07
2024-01-15T12:31:20.502Z,8.85
2024-01-15T12:34:22.427Z,8.85
2024-01-15T12:37:26.297Z,6.40
2024-01-15T12:40:29.133Z,7.60
2024-01-15T12:43:30.894Z,6.90
2024-01-15T12:46:32.795Z,8.05
2024-01-15T12:49:36.963Z,7.30
2024-01-15T12:52:40.918Z,9.13
2024-01-15T12:55:42.641Z,9.77
2024-01-15T12:58:44.287Z,8.52
2024-01-15T13:01:47.730Z,7.60
2024-01-15T13:04:49.626Z,6.38
2024-01-15T13:07:51.366Z,6.10
2024-01-15T13:10:57.173Z,7.10
2024-01-15T13:13:59.044Z,6.93
2024-01-15T13:17:00.859Z,7.53
2024-01-15T13:20:03.621Z,6.97
2024-01-15T13:23:05.543Z,6.00
2024-01-15T13:26:08.166Z,7.88
2024-01-15T13:29:09.813Z,9.15
2024-01-15T13:32:17.997Z,9.02
2024-01-15T13:35:19.681Z,6.88
2024-01-15T13:38:21.324Z,6.88
2024-01-15T13:41:26.266Z,7.45
2024-01-15T13:44:28.785Z,6.25
2024-01-15T13:47:30.439Z,7.03
2024-01-15T13:50:41.142Z,6.07
2024-01-15T13:53:42.850Z,7.25
2024-01-15T13:56:44.686Z,6.97
2024-01-15T13:59:46.797Z,6.53
2024-01-15T14:02:49.150Z,7.10
2024-01-15T14:05:52.182Z,5.07
2024-01-15T14:08:53.837Z,5.85
2024-01-15T14:11:55.813Z,5.40
2024-01-15T14:14:57.566Z,6.85
2024-01-15T14:18:00.196Z,6.93
2024-01-15T14:21:01.961Z,5.70
2024-01-15T14:24:05.576Z,5.95
2024-01-15T14:27:08.321Z,5.57
2024-01-15T14:30:10.784Z,6.88
2024-01-15T14:33:12.652Z,5.32
2024-01-15T14:36:14.589Z,5.80
2024-01-15T14:39:16.415Z,5.95
2024-01-15T14:42:18.139Z,6.05
2024-01-15T14:45:20.347Z,5.70
2024-01-15T14:48:22.169Z,5.85
2024-01-15T14:51:23.955Z,7.05
2024-01-15T14:54:25.903Z,5.45
2024-01-15T14:57:27.752Z,5.13
2024-01-15T15:00:29.524Z,5.03
2024-01-15T15:03:31.544Z,5.43
2024-01-15T15:06:33.820Z,6.30
2024-01-15T15:09:35.767Z,5.40
2024-01-15T15:12:37.661Z,6.15
2024-01-15T15:15:39.447Z,5.40
2024-01-15T15:18:41.234Z,6.50
2024-01-15T15:21:43.102Z,5.60
2024-01-15T15:24:45.337Z,5.38
2024-01-15T15:27:47.147Z,7.57
2024-01-15T15:30:48.888Z,6.10
2024-01-15T15:33:50.853Z,7.07
2024-01-15T15:36:52.776Z,5.53
2024-01-15T15:39:54.527Z,5.70
2024-01-15T15:42:56.423Z,6.47
2024-01-15T15:46:01.482Z,5.60
2024-01-15T15:49:07.836Z,5.95
2024-01-15T15:52:09.961Z,6.05
2024-01-15T15:55:11.753Z,6.75
2024-01-15T15:58:13.507Z,7.90
2024-01-15T16:01:15.372Z,6.40
2024-01-15T16:04:17.316Z,6.88
2024-01-15T16:07:19.166Z,6.00
2024-01-15T16:10:20.971Z,6.72
2024-01-15T16:13:22.756Z,7.05
2024-01-15T16:23:10.982Z,5.47
2024-01-15T16:23:27.118Z,5.65
2024-01-15T16:23:59.985Z,5.65
2024-01-15T16:26:31.442Z,6.13
2024-01-15T16:29:33.292Z,5.93
2024-01-15T16:32:35.373Z,5.85
2024-01-15T16:35:37.340Z,5.82
2024-01-15T16:38:39.482Z,5.53
2024-01-15T16:41:41.363Z,5.38
2024-01-15T16:44:43.138Z,5.22
2024-01-15T16:47:44.932Z,6.32
2024-01-15T16:50:46.884Z,5.68
2024-01-15T16:53:48.633Z,6.03
2024-01-15T16:56:50.832Z,6.60
2024-01-15T16:59:52.576Z,5.20
2024-01-15T17:02:54.845Z,5.57
2024-01-15T17:05:56.504Z,5.90
2024-01-15T17:08:58.428Z,7.18
2024-01-15T17:12:00.174Z,5.57
2024-01-15T17:15:01.883Z,6.60
2024-01-15T17:18:04.530Z,8.38
2024-01-15T17:21:07.133Z,9.23
2024-01-15T17:24:08.932Z,7.53
2024-01-15T17:27:10.586Z,10.85
2024-01-15T17:30:12.818Z,8.70
2024-01-15T17:33:15.003Z,8.95
2024-01-15T17:36:16.819Z,7.28
2024-01-15T17:39:19.221Z,7.40
2024-01-15T17:42:20.907Z,8.02
2024-01-15T17:45:22.961Z,7.68
2024-01-15T17:48:26.060Z,9.13
2024-01-15T17:51:27.815Z,9.18
2024-01-15T17:54:31.232Z,9.23
2024-01-15T17:57:32.886Z,9.50
2024-01-15T18:00:35.179Z,8.48
2024-01-15T18:03:36.944Z,8.90
2024-01-15T18:06:38.745Z,8.65
2024-01-15T18:09:40.578Z,7.47
2024-01-15T18:12:42.312Z,7.93
2024-01-15T18:15:43.970Z,7.63
2024-01-15T18:18:46.394Z,6.68
2024-01-15T18:21:48.696Z,6.97
2024-01-15T18:24:50.460Z,6.82
2024-01-15T18:27:52.260Z,5.65
2024-01-15T18:30:53.987Z,6.22
2024-01-15T18:33:55.875Z,5.85
2024-01-15T18:36:57.586Z,6.53
2024-01-15T18:39:59.246Z,7.50
2024-01-15T18:43:01.489Z,6.88
2024-01-15T18:46:08.784Z,8.55
2024-01-15T18:49:11.556Z,10.20
2024-01-15T18:52:13.301Z,11.73
2024-01-15T18:55:15.257Z,9.45
2024-01-15T18:58:17.797Z,11.15
2024-01-15T19:01:30.569Z,8.57
2024-01-15T19:04:32.329Z,11.85
2024-01-15T19:07:34.372Z,8.30
2024-01-15T19:10:36.289Z,11.38
2024-01-15T19:13:38.297Z,8.57
2024-01-15T19:16:40.040Z,9.35
2024-01-15T19:19:42.291Z,8.68
2024-01-15T19:22:43.979Z,9.43
2024-01-15T19:25:45.954Z,8.82
2024-01-15T19:28:48.629Z,7.30
2024-01-15T19:31:50.430Z,9.40
2024-01-15T19:34:52.748Z,8.18
2024-01-15T19:37:54.479Z,8.13
2024-01-15T19:40:56.085Z,8.45
2024-01-15T19:43:57.855Z,8.25
2024-01-15T19:46:59.644Z,8.90
2024-01-15T19:50:01.336Z,8.10
2024-01-15T19:53:03.137Z,8.27
2024-01-15T19:56:05.105Z,8.48
2024-01-15T19:59:07.227Z,6.70
2024-01-15T20:02:08.981Z,7.38
2024-01-15T20:05:11.362Z,7.45
2024-01-15T20:08:13.220Z,8.98
2024-01-15T20:11:15.225Z,8.13
2024-01-15T20:14:17.038Z,7.20
2024-01-15T20:17:18.932Z,7.80
2024-01-15T20:20:20.927Z,7.90
2024-01-15T20:23:22.725Z,10.52
2024-01-15T20:26:25.463Z,8.48
2024-01-15T20:29:27.225Z,11.82
2024-01-15T20:32:29.031Z,9.68
2024-01-15T20:35:30.825Z,8.43
2024-01-15T20:38:33.047Z,12.48
2024-01-15T20:41:35.082Z,8.00
2024-01-15T20:44:36.864Z,9.05
2024-01-15T20:47:39.061Z,7.25
2024-01-15T20:50:40.825Z,6.65
2024-01-15T20:53:43.350Z,10.18
2024-01-15T20:56:45.507Z,8.85
2024-01-15T20:59:50.411Z,7.10
2024-01-15T21:02:53.897Z,6.20
2024-01-15T21:05:55.758Z,7.15
2024-01-15T21:08:57.525Z,8.10
2024-01-15T21:11:59.187Z,6.95
2024-01-15T21:15:01.101Z,6.85
2024-01-15T21:18:04.708Z,6.53
2024-01-15T21:21:06.855Z,6.05
2024-01-15T21:24:09.422Z,8.77
2024-01-15T21:27:11.368Z,7.72
2024-01-15T21:30:15.871Z,6.65
2024-01-15T21:33:17.698Z,7.03
2024-01-15T21:36:19.402Z,7.60
2024-01-15T21:39:21.162Z,8.02
2024-01-15T21:42:22.872Z,10.88
2024-01-15T21:45:24.572Z,11.85
2024-01-15T21:48:26.577Z,10.55
2024-01-15T21:51:28.552Z,8.93
2024-01-15T21:54:30.261Z,7.70
2024-01-15T21:57:32.208Z,6.55
2024-01-15T22:00:35.193Z,6.10
2024-01-15T22:03:37.230Z,5.70
2024-01-15T22:06:39.057Z,6.45
2024-01-15T22:09:41.641Z,5.63
2024-01-15T22:12:43.343Z,5.63
2024-01-15T22:15:45.085Z,6.45
2024-01-15T22:18:48.107Z,6.78
2024-01-15T22:21:50.352Z,6.25
2024-01-15T22:24:52.195Z,7.13
2024-01-15T22:27:54.061Z,6.47
2024-01-15T22:30:55.741Z,7.00
2024-01-15T22:33:57.546Z,7.03
2024-01-15T22:36:59.556Z,6.88
2024-01-15T22:40:01.294Z,6.47
2024-01-15T22:43:03.326Z,5.22
2024-01-15T22:46:05.323Z,6.53
2024-01-15T22:49:07.215Z,7.32
2024-01-15T22:52:09.517Z,6.40
2024-01-15T22:55:11.781Z,5.65
2024-01-15T22:58:13.592Z,6.60
2024-01-15T23:01:15.332Z,6.35
2024-01-15T23:04:17.184Z,7.03
2024-01-15T23:07:18.965Z,5.95
2024-01-15T23:10:20.939Z,6.75
2024-01-15T23:13:22.913Z,5.68
2024-01-15T23:16:24.906Z,6.35
2024-01-15T23:19:26.640Z,6.30
2024-01-15T23:22:28.344Z,6.63
2024-01-15T23:25:30.012Z,6.63
2024-01-15T23:28:32.880Z,6.40
2024-01-15T23:31:34.766Z,6.40
2024-01-15T23:34:36.738Z,5.05
2024-01-15T23:37:39.359Z,5.50
2024-01-15T23:40:41.080Z,6.18
2024-01-15T23:43:42.833Z,5.28
2024-01-15T23:46:44.488Z,5.85
2024-01-15T23:49:46.239Z,5.68
2024-01-15T23:52:47.908Z,5.40
2024-01-15T23:55:49.669Z,5.22
2024-01-15T23:58:51.372Z,5.63
